sensor_id;sensor_type;location;lat;lon;timestamp;P1;durP1;ratioP1;P2;durP2;ratioP2
21192;SDS011;10754;51.106;7.164;2023-04-15T00:01:25;4.22;;;2.80;;
21192;SDS011;10754;51.106;7.164;2023-04-15T00:03:51;3.00;;;2.40;;
21192;SDS011;10754;51.106;7.164;2023-04-15T00:06:18;3.88;;;2.50;;
21192;SDS011;10754;51.106;7.164;2023-04-15T00:08:45;3.35;;;2.03;;
21192;SDS011;10754;51.106;7.164;2023-04-15T00:11:11;4.97;;;2.47;;
21192;SDS011;10754;51.106;7.164;2023-04-15T00:13:37;3.87;;;2.17;;
21192;SDS011;10754;51.106;7.164;2023-04-15T00:16:03;2.95;;;2.00;;
21192;SDS011;10754;51.106;7.164;2023-04-15T00:18:30;3.97;;;2.60;;
21192;SDS011;10754;51.106;7.164;2023-04-15T00:20:56;4.60;;;2.50;;
21192;SDS011;10754;51.106;7.164;2023-04-15T00:23:22;3.70;;;2.83;;
21192;SDS011;10754;51.106;7.164;2023-04-15T00:25:47;3.92;;;2.15;;
21192;SDS011;10754;51.106;7.164;2023-04-15T00:28:13;3.47;;;2.45;;
21192;SDS011;10754;51.106;7.164;2023-04-15T00:30:38;5.15;;;2.75;;
21192;SDS011;10754;51.106;7.164;2023-04-15T00:33:04;3.33;;;2.50;;
21192;SDS011;10754;51.106;7.164;2023-04-15T00:35:30;3.30;;;2.30;;
21192;SDS011;10754;51.106;7.164;2023-04-15T00:37:56;3.33;;;2.10;;
21192;SDS011;10754;51.106;7.164;2023-04-15T00:40:22;3.30;;;2.38;;
21192;SDS011;10754;51.106;7.164;2023-04-15T00:42:48;4.13;;;1.98;;
21192;SDS011;10754;51.106;7.164;2023-04-15T00:45:14;2.70;;;2.10;;
21192;SDS011;10754;51.106;7.164;2023-04-15T00:47:40;2.37;;;1.80;;
21192;SDS011;10754;51.106;7.164;2023-04-15T00:50:08;3.10;;;1.90;;
21192;SDS011;10754;51.106;7.164;2023-04-15T00:52:34;4.10;;;2.97;;
21192;SDS011;10754;51.106;7.164;2023-04-15T00:55:00;3.22;;;2.05;;
21192;SDS011;10754;51.106;7.164;2023-04-15T00:57:26;2.75;;;1.75;;
21192;SDS011;10754;51.106;7.164;2023-04-15T00:59:53;3.87;;;2.00;;
21192;SDS011;10754;51.106;7.164;2023-04-15T01:02:19;5.07;;;2.00;;
21192;SDS011;10754;51.106;7.164;2023-04-15T01:04:46;2.45;;;1.70;;
21192;SDS011;10754;51.106;7.164;2023-04-15T01:07:12;3.53;;;2.33;;
21192;SDS011;10754;51.106;7.164;2023-04-15T01:09:38;5.45;;;2.35;;
21192;SDS011;10754;51.106;7.164;2023-04-15T01:12:03;3.15;;;2.03;;
21192;SDS011;10754;51.106;7.164;2023-04-15T01:14:29;2.72;;;1.90;;
21192;SDS011;10754;51.106;7.164;2023-04-15T01:16:55;2.73;;;1.90;;
21192;SDS011;10754;51.106;7.164;2023-04-15T01:19:21;2.42;;;2.10;;
21192;SDS011;10754;51.106;7.164;2023-04-15T01:21:47;2.40;;;2.03;;
21192;SDS011;10754;51.106;7.164;2023-04-15T01:24:12;2.30;;;1.80;;
21192;SDS011;10754;51.106;7.164;2023-04-15T01:26:41;3.17;;;2.13;;
21192;SDS011;10754;51.106;7.164;2023-04-15T01:29:07;3.20;;;2.40;;
21192;SDS011;10754;51.106;7.164;2023-04-15T01:31:33;2.63;;;1.90;;
21192;SDS011;10754;51.106;7.164;2023-04-15T01:34:02;3.05;;;1.92;;
21192;SDS011;10754;51.106;7.164;2023-04-15T01:36:31;5.53;;;2.90;;
21192;SDS011;10754;51.106;7.164;2023-04-15T01:38:58;3.75;;;2.22;;
21192;SDS011;10754;51.106;7.164;2023-04-15T01:41:24;2.33;;;1.77;;
21192;SDS011;10754;51.106;7.164;2023-04-15T01:43:51;2.75;;;2.08;;
21192;SDS011;10754;51.106;7.164;2023-04-15T01:46:16;3.60;;;2.00;;
21192;SDS011;10754;51.106;7.164;2023-04-15T01:48:42;3.42;;;2.13;;
21192;SDS011;10754;51.106;7.164;2023-04-15T01:51:07;2.00;;;1.80;;
21192;SDS011;10754;51.106;7.164;2023-04-15T01:53:33;2.65;;;2.15;;
21192;SDS011;10754;51.106;7.164;2023-04-15T01:55:58;2.20;;;2.00;;
21192;SDS011;10754;51.106;7.164;2023-04-15T01:58:24;3.28;;;2.30;;
21192;SDS011;10754;51.106;7.164;2023-04-15T02:00:50;2.90;;;2.40;;
21192;SDS011;10754;51.106;7.164;2023-04-15T02:03:15;2.83;;;1.95;;
21192;SDS011;10754;51.106;7.164;2023-04-15T02:05:41;3.30;;;2.08;;
21192;SDS011;10754;51.106;7.164;2023-04-15T02:08:06;2.90;;;2.15;;
21192;SDS011;10754;51.106;7.164;2023-04-15T02:10:33;2.83;;;1.98;;
21192;SDS011;10754;51.106;7.164;2023-04-15T02:12:59;2.93;;;2.07;;
21192;SDS011;10754;51.106;7.164;2023-04-15T02:15:24;3.42;;;1.80;;
21192;SDS011;10754;51.106;7.164;2023-04-15T02:17:50;2.65;;;1.83;;
21192;SDS011;10754;51.106;7.164;2023-04-15T02:20:17;3.17;;;2.25;;
21192;SDS011;10754;51.106;7.164;2023-04-15T02:22:43;3.72;;;2.10;;
21192;SDS011;10754;51.106;7.164;2023-04-15T02:25:09;3.35;;;2.00;;
21192;SDS011;10754;51.106;7.164;2023-04-15T02:27:35;2.08;;;1.90;;
21192;SDS011;10754;51.106;7.164;2023-04-15T02:30:00;3.95;;;2.10;;
21192;SDS011;10754;51.106;7.164;2023-04-15T02:32:27;3.45;;;1.90;;
21192;SDS011;10754;51.106;7.164;2023-04-15T02:34:53;2.28;;;1.77;;
21192;SDS011;10754;51.106;7.164;2023-04-15T02:37:18;1.90;;;1.70;;
21192;SDS011;10754;51.106;7.164;2023-04-15T02:39:44;2.03;;;1.70;;
21192;SDS011;10754;51.106;7.164;2023-04-15T02:42:10;2.25;;;1.88;;
21192;SDS011;10754;51.106;7.164;2023-04-15T02:44:37;3.97;;;2.00;;
21192;SDS011;10754;51.106;7.164;2023-04-15T02:47:02;4.03;;;2.17;;
21192;SDS011;10754;51.106;7.164;2023-04-15T02:49:30;2.47;;;1.60;;
21192;SDS011;10754;51.106;7.164;2023-04-15T02:51:55;3.17;;;2.22;;
21192;SDS011;10754;51.106;7.164;2023-04-15T02:54:22;3.10;;;1.83;;
21192;SDS011;10754;51.106;7.164;2023-04-15T02:56:48;4.28;;;1.80;;
21192;SDS011;10754;51.106;7.164;2023-04-15T02:59:14;2.40;;;1.90;;
21192;SDS011;10754;51.106;7.164;2023-04-15T03:01:40;2.90;;;2.00;;
21192;SDS011;10754;51.106;7.164;2023-04-15T03:04:06;3.40;;;2.10;;
21192;SDS011;10754;51.106;7.164;2023-04-15T03:06:32;3.07;;;1.73;;
21192;SDS011;10754;51.106;7.164;2023-04-15T03:08:58;4.00;;;2.10;;
21192;SDS011;10754;51.106;7.164;2023-04-15T03:11:24;1.93;;;1.73;;
21192;SDS011;10754;51.106;7.164;2023-04-15T03:13:51;1.70;;;1.60;;
21192;SDS011;10754;51.106;7.164;2023-04-15T03:16:16;3.00;;;1.83;;
21192;SDS011;10754;51.106;7.164;2023-04-15T03:18:42;2.67;;;2.00;;
21192;SDS011;10754;51.106;7.164;2023-04-15T03:21:07;3.30;;;2.17;;
21192;SDS011;10754;51.106;7.164;2023-04-15T03:23:33;2.13;;;2.00;;
21192;SDS011;10754;51.106;7.164;2023-04-15T03:26:02;2.10;;;1.90;;
21192;SDS011;10754;51.106;7.164;2023-04-15T03:28:28;3.50;;;2.20;;
21192;SDS011;10754;51.106;7.164;2023-04-15T03:30:54;3.10;;;1.80;;
21192;SDS011;10754;51.106;7.164;2023-04-15T03:33:20;2.87;;;1.50;;
21192;SDS011;10754;51.106;7.164;2023-04-15T03:35:45;3.87;;;1.90;;
21192;SDS011;10754;51.106;7.164;2023-04-15T03:38:11;2.40;;;1.70;;
21192;SDS011;10754;51.106;7.164;2023-04-15T03:40:37;3.42;;;1.90;;
21192;SDS011;10754;51.106;7.164;2023-04-15T03:43:05;3.60;;;1.90;;
21192;SDS011;10754;51.106;7.164;2023-04-15T03:45:30;2.20;;;1.60;;
21192;SDS011;10754;51.106;7.164;2023-04-15T03:47:56;4.33;;;1.90;;
21192;SDS011;10754;51.106;7.164;2023-04-15T03:50:21;2.93;;;2.13;;
21192;SDS011;10754;51.106;7.164;2023-04-15T03:52:47;2.43;;;2.20;;
21192;SDS011;10754;51.106;7.164;2023-04-15T03:55:12;4.37;;;2.30;;
21192;SDS011;10754;51.106;7.164;2023-04-15T03:57:39;5.37;;;1.80;;
21192;SDS011;10754;51.106;7.164;2023-04-15T04:00:05;3.50;;;2.07;;
21192;SDS011;10754;51.106;7.164;2023-04-15T04:02:31;3.00;;;2.10;;
21192;SDS011;10754;51.106;7.164;2023-04-15T04:04:57;2.63;;;1.70;;
21192;SDS011;10754;51.106;7.164;2023-04-15T04:07:22;2.50;;;1.70;;
21192;SDS011;10754;51.106;7.164;2023-04-15T04:09:48;3.00;;;1.80;;
21192;SDS011;10754;51.106;7.164;2023-04-15T04:12:14;1.87;;;1.60;;
21192;SDS011;10754;51.106;7.164;2023-04-15T04:14:40;2.60;;;2.10;;
21192;SDS011;10754;51.106;7.164;2023-04-15T04:17:05;2.17;;;1.70;;
21192;SDS011;10754;51.106;7.164;2023-04-15T04:19:31;2.73;;;1.77;;
21192;SDS011;10754;51.106;7.164;2023-04-15T04:21:56;3.57;;;2.00;;
21192;SDS011;10754;51.106;7.164;2023-04-15T04:24:22;4.13;;;2.10;;
21192;SDS011;10754;51.106;7.164;2023-04-15T04:26:47;1.97;;;1.77;;
21192;SDS011;10754;51.106;7.164;2023-04-15T04:29:13;3.07;;;2.30;;
21192;SDS011;10754;51.106;7.164;2023-04-15T04:31:38;3.47;;;3.17;;
21192;SDS011;10754;51.106;7.164;2023-04-15T04:34:04;3.67;;;2.80;;
21192;SDS011;10754;51.106;7.164;2023-04-15T04:36:30;3.90;;;2.40;;
21192;SDS011;10754;51.106;7.164;2023-04-15T04:38:55;2.90;;;2.60;;
21192;SDS011;10754;51.106;7.164;2023-04-15T04:41:21;2.87;;;2.57;;
21192;SDS011;10754;51.106;7.164;2023-04-15T04:43:46;3.83;;;2.47;;
21192;SDS011;10754;51.106;7.164;2023-04-15T04:46:12;2.80;;;2.60;;
21192;SDS011;10754;51.106;7.164;2023-04-15T04:48:37;4.27;;;3.63;;
21192;SDS011;10754;51.106;7.164;2023-04-15T04:51:03;3.37;;;2.47;;
21192;SDS011;10754;51.106;7.164;2023-04-15T04:53:29;4.13;;;3.20;;
21192;SDS011;10754;51.106;7.164;2023-04-15T04:55:54;2.83;;;2.63;;
21192;SDS011;10754;51.106;7.164;2023-04-15T04:58:20;2.90;;;2.50;;
21192;SDS011;10754;51.106;7.164;2023-04-15T05:00:45;3.67;;;2.73;;
21192;SDS011;10754;51.106;7.164;2023-04-15T05:03:11;3.20;;;2.80;;
21192;SDS011;10754;51.106;7.164;2023-04-15T05:05:37;3.10;;;2.80;;
21192;SDS011;10754;51.106;7.164;2023-04-15T05:08:05;2.93;;;2.50;;
21192;SDS011;10754;51.106;7.164;2023-04-15T05:10:31;3.93;;;2.80;;
21192;SDS011;10754;51.106;7.164;2023-04-15T05:12:56;4.03;;;2.70;;
21192;SDS011;10754;51.106;7.164;2023-04-15T05:15:22;2.97;;;2.67;;
21192;SDS011;10754;51.106;7.164;2023-04-15T05:17:47;3.07;;;2.57;;
21192;SDS011;10754;51.106;7.164;2023-04-15T05:20:13;3.57;;;2.80;;
21192;SDS011;10754;51.106;7.164;2023-04-15T05:22:39;2.47;;;2.20;;
21192;SDS011;10754;51.106;7.164;2023-04-15T05:25:05;4.67;;;2.87;;
21192;SDS011;10754;51.106;7.164;2023-04-15T05:27:31;4.20;;;3.20;;
21192;SDS011;10754;51.106;7.164;2023-04-15T05:29:56;3.30;;;2.60;;
21192;SDS011;10754;51.106;7.164;2023-04-15T05:32:22;2.80;;;2.60;;
21192;SDS011;10754;51.106;7.164;2023-04-15T05:34:47;3.20;;;2.50;;
21192;SDS011;10754;51.106;7.164;2023-04-15T05:37:13;3.90;;;2.70;;
21192;SDS011;10754;51.106;7.164;2023-04-15T05:39:38;2.90;;;2.03;;
21192;SDS011;10754;51.106;7.164;2023-04-15T05:42:04;2.77;;;2.40;;
21192;SDS011;10754;51.106;7.164;2023-04-15T05:44:30;2.63;;;2.43;;
21192;SDS011;10754;51.106;7.164;2023-04-15T05:46:55;3.60;;;2.63;;
21192;SDS011;10754;51.106;7.164;2023-04-15T05:49:21;4.37;;;3.60;;
21192;SDS011;10754;51.106;7.164;2023-04-15T05:51:47;3.50;;;2.73;;
21192;SDS011;10754;51.106;7.164;2023-04-15T05:54:13;3.07;;;2.47;;
21192;SDS011;10754;51.106;7.164;2023-04-15T05:56:38;3.17;;;2.23;;
21192;SDS011;10754;51.106;7.164;2023-04-15T05:59:04;3.07;;;2.77;;
21192;SDS011;10754;51.106;7.164;2023-04-15T06:01:30;3.00;;;2.70;;
21192;SDS011;10754;51.106;7.164;2023-04-15T06:03:57;2.77;;;2.57;;
21192;SDS011;10754;51.106;7.164;2023-04-15T06:06:22;3.73;;;2.90;;
21192;SDS011;10754;51.106;7.164;2023-04-15T06:08:48;3.27;;;2.50;;
21192;SDS011;10754;51.106;7.164;2023-04-15T06:11:13;2.77;;;2.40;;
21192;SDS011;10754;51.106;7.164;2023-04-15T06:13:39;3.43;;;3.13;;
21192;SDS011;10754;51.106;7.164;2023-04-15T06:16:05;3.93;;;3.10;;
21192;SDS011;10754;51.106;7.164;2023-04-15T06:18:31;3.77;;;2.73;;
21192;SDS011;10754;51.106;7.164;2023-04-15T06:20:57;3.53;;;3.17;;
21192;SDS011;10754;51.106;7.164;2023-04-15T06:23:23;2.80;;;2.60;;
21192;SDS011;10754;51.106;7.164;2023-04-15T06:25:48;3.50;;;3.20;;
21192;SDS011;10754;51.106;7.164;2023-04-15T06:28:14;4.20;;;3.80;;
21192;SDS011;10754;51.106;7.164;2023-04-15T06:30:39;3.83;;;3.53;;
21192;SDS011;10754;51.106;7.164;2023-04-15T06:33:05;5.80;;;4.60;;
21192;SDS011;10754;51.106;7.164;2023-04-15T06:35:31;4.97;;;4.57;;
21192;SDS011;10754;51.106;7.164;2023-04-15T06:37:56;5.70;;;4.47;;
21192;SDS011;10754;51.106;7.164;2023-04-15T06:40:22;4.90;;;4.30;;
21192;SDS011;10754;51.106;7.164;2023-04-15T06:42:48;5.27;;;4.77;;
21192;SDS011;10754;51.106;7.164;2023-04-15T06:45:13;6.50;;;5.00;;
21192;SDS011;10754;51.106;7.164;2023-04-15T06:47:39;4.60;;;4.20;;
21192;SDS011;10754;51.106;7.164;2023-04-15T06:50:05;4.97;;;4.47;;
21192;SDS011;10754;51.106;7.164;2023-04-15T06:52:31;4.60;;;4.20;;
21192;SDS011;10754;51.106;7.164;2023-04-15T06:54:57;4.93;;;4.50;;
21192;SDS011;10754;51.106;7.164;2023-04-15T06:57:23;4.73;;;4.33;;
21192;SDS011;10754;51.106;7.164;2023-04-15T06:59:49;4.50;;;4.10;;
21192;SDS011;10754;51.106;7.164;2023-04-15T07:02:15;4.47;;;4.03;;
21192;SDS011;10754;51.106;7.164;2023-04-15T07:04:40;4.27;;;3.87;;
21192;SDS011;10754;51.106;7.164;2023-04-15T07:07:06;3.80;;;3.50;;
21192;SDS011;10754;51.106;7.164;2023-04-15T07:09:32;3.85;;;3.50;;
21192;SDS011;10754;51.106;7.164;2023-04-15T07:11:58;3.67;;;3.08;;
21192;SDS011;10754;51.106;7.164;2023-04-15T07:14:23;4.40;;;3.35;;
21192;SDS011;10754;51.106;7.164;2023-04-15T07:16:49;2.97;;;2.67;;
21192;SDS011;10754;51.106;7.164;2023-04-15T07:19:15;3.45;;;2.63;;
21192;SDS011;10754;51.106;7.164;2023-04-15T07:21:41;2.47;;;2.27;;
21192;SDS011;10754;51.106;7.164;2023-04-15T07:24:06;2.70;;;2.45;;
21192;SDS011;10754;51.106;7.164;2023-04-15T07:26:34;2.37;;;2.17;;
21192;SDS011;10754;51.106;7.164;2023-04-15T07:28:59;2.10;;;2.00;;
21192;SDS011;10754;51.106;7.164;2023-04-15T07:31:25;2.50;;;2.30;;
21192;SDS011;10754;51.106;7.164;2023-04-15T07:33:51;3.58;;;2.00;;
21192;SDS011;10754;51.106;7.164;2023-04-15T07:36:17;3.28;;;2.33;;
21192;SDS011;10754;51.106;7.164;2023-04-15T07:38:42;1.73;;;1.63;;
21192;SDS011;10754;51.106;7.164;2023-04-15T07:41:08;3.45;;;2.10;;
21192;SDS011;10754;51.106;7.164;2023-04-15T07:43:34;1.88;;;1.70;;
21192;SDS011;10754;51.106;7.164;2023-04-15T07:46:00;1.85;;;1.55;;
21192;SDS011;10754;51.106;7.164;2023-04-15T07:48:25;3.90;;;1.88;;
21192;SDS011;10754;51.106;7.164;2023-04-15T07:50:51;1.85;;;1.50;;
21192;SDS011;10754;51.106;7.164;2023-04-15T07:53:17;1.70;;;1.60;;
21192;SDS011;10754;51.106;7.164;2023-04-15T07:55:43;2.65;;;1.77;;
21192;SDS011;10754;51.106;7.164;2023-04-15T07:58:08;2.00;;;1.80;;
21192;SDS011;10754;51.106;7.164;2023-04-15T08:00:34;2.25;;;1.80;;
21192;SDS011;10754;51.106;7.164;2023-04-15T08:03:00;2.05;;;1.85;;
21192;SDS011;10754;51.106;7.164;2023-04-15T08:05:25;2.30;;;2.10;;
21192;SDS011;10754;51.106;7.164;2023-04-15T08:07:51;2.40;;;2.17;;
21192;SDS011;10754;51.106;7.164;2023-04-15T08:10:16;4.22;;;2.00;;
21192;SDS011;10754;51.106;7.164;2023-04-15T08:12:42;2.10;;;1.60;;
21192;SDS011;10754;51.106;7.164;2023-04-15T08:15:08;1.85;;;1.40;;
21192;SDS011;10754;51.106;7.164;2023-04-15T08:17:33;2.15;;;1.50;;
21192;SDS011;10754;51.106;7.164;2023-04-15T08:19:59;1.77;;;1.48;;
21192;SDS011;10754;51.106;7.164;2023-04-15T08:22:24;1.45;;;1.35;;
21192;SDS011;10754;51.106;7.164;2023-04-15T08:24:50;1.85;;;1.60;;
21192;SDS011;10754;51.106;7.164;2023-04-15T08:27:16;2.53;;;1.88;;
21192;SDS011;10754;51.106;7.164;2023-04-15T08:29:42;2.38;;;1.67;;
21192;SDS011;10754;51.106;7.164;2023-04-15T08:32:07;1.70;;;1.60;;
21192;SDS011;10754;51.106;7.164;2023-04-15T08:34:33;1.48;;;1.38;;
21192;SDS011;10754;51.106;7.164;2023-04-15T08:36:59;1.55;;;1.35;;
21192;SDS011;10754;51.106;7.164;2023-04-15T08:39:25;1.65;;;1.45;;
21192;SDS011;10754;51.106;7.164;2023-04-15T08:41:55;1.45;;;1.30;;
21192;SDS011;10754;51.106;7.164;2023-04-15T08:44:32;1.30;;;1.20;;
21192;SDS011;10754;51.106;7.164;2023-04-15T08:47:00;1.63;;;1.50;;
21192;SDS011;10754;51.106;7.164;2023-04-15T08:49:26;2.05;;;1.83;;
21192;SDS011;10754;51.106;7.164;2023-04-15T08:51:53;2.05;;;1.85;;
21192;SDS011;10754;51.106;7.164;2023-04-15T08:54:22;2.78;;;2.10;;
21192;SDS011;10754;51.106;7.164;2023-04-15T08:56:47;2.45;;;1.90;;
21192;SDS011;10754;51.106;7.164;2023-04-15T08:59:13;2.67;;;2.03;;
21192;SDS011;10754;51.106;7.164;2023-04-15T09:01:40;2.63;;;2.42;;
21192;SDS011;10754;51.106;7.164;2023-04-15T09:04:06;3.67;;;2.95;;
21192;SDS011;10754;51.106;7.164;2023-04-15T09:06:32;2.55;;;2.35;;
21192;SDS011;10754;51.106;7.164;2023-04-15T09:08:58;2.83;;;2.25;;
21192;SDS011;10754;51.106;7.164;2023-04-15T09:11:23;2.25;;;1.90;;
21192;SDS011;10754;51.106;7.164;2023-04-15T09:13:49;2.17;;;1.90;;
21192;SDS011;10754;51.106;7.164;2023-04-15T09:16:15;1.73;;;1.58;;
21192;SDS011;10754;51.106;7.164;2023-04-15T09:18:42;1.85;;;1.65;;
21192;SDS011;10754;51.106;7.164;2023-04-15T09:21:08;8.07;;;1.63;;
21192;SDS011;10754;51.106;7.164;2023-04-15T09:23:40;1.33;;;1.10;;
21192;SDS011;10754;51.106;7.164;2023-04-15T09:26:28;2.50;;;1.35;;
21192;SDS011;10754;51.106;7.164;2023-04-15T09:29:01;1.17;;;1.08;;
21192;SDS011;10754;51.106;7.164;2023-04-15T09:31:34;1.35;;;1.23;;
21192;SDS011;10754;51.106;7.164;2023-04-15T09:34:01;1.92;;;1.38;;
21192;SDS011;10754;51.106;7.164;2023-04-15T09:36:27;1.50;;;1.27;;
21192;SDS011;10754;51.106;7.164;2023-04-15T09:38:56;1.77;;;1.40;;
21192;SDS011;10754;51.106;7.164;2023-04-15T09:41:22;2.60;;;1.42;;
21192;SDS011;10754;51.106;7.164;2023-04-15T09:43:49;1.40;;;1.30;;
21192;SDS011;10754;51.106;7.164;2023-04-15T09:46:15;1.50;;;1.40;;
21192;SDS011;10754;51.106;7.164;2023-04-15T09:48:40;2.00;;;1.83;;
21192;SDS011;10754;51.106;7.164;2023-04-15T09:51:06;2.20;;;2.00;;
21192;SDS011;10754;51.106;7.164;2023-04-15T09:53:32;2.33;;;2.13;;
21192;SDS011;10754;51.106;7.164;2023-04-15T09:55:59;2.47;;;2.20;;
21192;SDS011;10754;51.106;7.164;2023-04-15T09:58:26;2.08;;;1.88;;
21192;SDS011;10754;51.106;7.164;2023-04-15T10:00:54;2.25;;;2.05;;
21192;SDS011;10754;51.106;7.164;2023-04-15T10:03:24;2.35;;;2.15;;
21192;SDS011;10754;51.106;7.164;2023-04-15T10:05:55;3.35;;;2.17;;
21192;SDS011;10754;51.106;7.164;2023-04-15T10:08:23;1.90;;;1.60;;
21192;SDS011;10754;51.106;7.164;2023-04-15T10:10:54;1.73;;;1.63;;
21192;SDS011;10754;51.106;7.164;2023-04-15T10:13:24;1.95;;;1.70;;
21192;SDS011;10754;51.106;7.164;2023-04-15T10:16:05;2.10;;;1.55;;
21192;SDS011;10754;51.106;7.164;2023-04-15T10:18:43;1.88;;;1.70;;
21192;SDS011;10754;51.106;7.164;2023-04-15T10:21:15;1.60;;;1.50;;
21192;SDS011;10754;51.106;7.164;2023-04-15T10:23:43;1.75;;;1.65;;
21192;SDS011;10754;51.106;7.164;2023-04-15T10:26:09;2.28;;;1.50;;
21192;SDS011;10754;51.106;7.164;2023-04-15T10:28:37;1.90;;;1.80;;
21192;SDS011;10754;51.106;7.164;2023-04-15T10:31:02;2.03;;;1.83;;
21192;SDS011;10754;51.106;7.164;2023-04-15T10:33:29;2.42;;;1.70;;
21192;SDS011;10754;51.106;7.164;2023-04-15T10:35:55;1.83;;;1.60;;
21192;SDS011;10754;51.106;7.164;2023-04-15T10:46:35;1.58;;;1.48;;
21192;SDS011;10754;51.106;7.164;2023-04-15T10:49:10;1.52;;;1.42;;
21192;SDS011;10754;51.106;7.164;2023-04-15T10:51:38;1.77;;;1.60;;
21192;SDS011;10754;51.106;7.164;2023-04-15T10:56:47;1.73;;;1.63;;
21192;SDS011;10754;51.106;7.164;2023-04-15T10:59:15;2.22;;;1.60;;
21192;SDS011;10754;51.106;7.164;2023-04-15T11:01:51;1.67;;;1.50;;
21192;SDS011;10754;51.106;7.164;2023-04-15T11:12:38;1.70;;;1.60;;
21192;SDS011;10754;51.106;7.164;2023-04-15T11:17:48;2.10;;;1.60;;
21192;SDS011;10754;51.106;7.164;2023-04-15T11:20:15;1.60;;;1.50;;
21192;SDS011;10754;51.106;7.164;2023-04-15T11:22:48;1.65;;;1.55;;
21192;SDS011;10754;51.106;7.164;2023-04-15T11:25:21;2.40;;;1.83;;
21192;SDS011;10754;51.106;7.164;2023-04-15T11:27:51;1.60;;;1.50;;
21192;SDS011;10754;51.106;7.164;2023-04-15T11:30:22;1.80;;;1.70;;
21192;SDS011;10754;51.106;7.164;2023-04-15T11:32:50;1.90;;;1.67;;
21192;SDS011;10754;51.106;7.164;2023-04-15T11:35:16;2.00;;;1.80;;
21192;SDS011;10754;51.106;7.164;2023-04-15T11:37:43;2.10;;;1.85;;
21192;SDS011;10754;51.106;7.164;2023-04-15T11:40:10;2.33;;;1.60;;
21192;SDS011;10754;51.106;7.164;2023-04-15T11:42:36;2.20;;;1.80;;
21192;SDS011;10754;51.106;7.164;2023-04-15T11:45:08;3.45;;;2.42;;
21192;SDS011;10754;51.106;7.164;2023-04-15T11:47:38;2.60;;;1.70;;
21192;SDS011;10754;51.106;7.164;2023-04-15T11:50:15;2.15;;;1.92;;
21192;SDS011;10754;51.106;7.164;2023-04-15T11:55:23;1.92;;;1.73;;
21192;SDS011;10754;51.106;7.164;2023-04-15T11:57:49;1.85;;;1.75;;
21192;SDS011;10754;51.106;7.164;2023-04-15T12:00:29;2.05;;;1.95;;
21192;SDS011;10754;51.106;7.164;2023-04-15T12:03:10;1.83;;;1.70;;
21192;SDS011;10754;51.106;7.164;2023-04-15T12:11:19;1.50;;;1.40;;
21192;SDS011;10754;51.106;7.164;2023-04-15T12:13:52;1.70;;;1.60;;
21192;SDS011;10754;51.106;7.164;2023-04-15T12:16:20;1.67;;;1.58;;
21192;SDS011;10754;51.106;7.164;2023-04-15T12:18:47;1.77;;;1.67;;
21192;SDS011;10754;51.106;7.164;2023-04-15T12:21:17;1.70;;;1.60;;
21192;SDS011;10754;51.106;7.164;2023-04-15T12:23:48;1.52;;;1.42;;
21192;SDS011;10754;51.106;7.164;2023-04-15T12:26:18;1.83;;;1.73;;
21192;SDS011;10754;51.106;7.164;2023-04-15T12:28:55;1.75;;;1.65;;
21192;SDS011;10754;51.106;7.164;2023-04-15T12:31:29;2.30;;;1.90;;
21192;SDS011;10754;51.106;7.164;2023-04-15T12:33:55;2.50;;;2.30;;
21192;SDS011;10754;51.106;7.164;2023-04-15T12:36:21;1.90;;;1.80;;
21192;SDS011;10754;51.106;7.164;2023-04-15T12:38:47;2.13;;;2.00;;
21192;SDS011;10754;51.106;7.164;2023-04-15T12:41:13;2.38;;;2.17;;
21192;SDS011;10754;51.106;7.164;2023-04-15T12:43:39;2.53;;;2.33;;
21192;SDS011;10754;51.106;7.164;2023-04-15T12:46:04;2.38;;;2.28;;
21192;SDS011;10754;51.106;7.164;2023-04-15T12:48:32;2.85;;;2.58;;
21192;SDS011;10754;51.106;7.164;2023-04-15T12:50:58;2.50;;;2.30;;
21192;SDS011;10754;51.106;7.164;2023-04-15T12:53:23;2.67;;;2.47;;
21192;SDS011;10754;51.106;7.164;2023-04-15T12:55:50;2.42;;;2.20;;
21192;SDS011;10754;51.106;7.164;2023-04-15T12:58:16;3.15;;;2.90;;
21192;SDS011;10754;51.106;7.164;2023-04-15T13:00:41;2.95;;;2.75;;
21192;SDS011;10754;51.106;7.164;2023-04-15T13:03:07;2.92;;;2.72;;
21192;SDS011;10754;51.106;7.164;2023-04-15T13:05:32;3.63;;;3.33;;
21192;SDS011;10754;51.106;7.164;2023-04-15T13:07:58;3.60;;;3.30;;
21192;SDS011;10754;51.106;7.164;2023-04-15T13:10:23;3.28;;;2.97;;
21192;SDS011;10754;51.106;7.164;2023-04-15T13:12:49;3.35;;;3.15;;
21192;SDS011;10754;51.106;7.164;2023-04-15T13:15:17;3.70;;;3.40;;
21192;SDS011;10754;51.106;7.164;2023-04-15T13:17:45;3.85;;;3.55;;
21192;SDS011;10754;51.106;7.164;2023-04-15T13:20:10;3.55;;;3.25;;
21192;SDS011;10754;51.106;7.164;2023-04-15T13:22:36;3.25;;;2.95;;
21192;SDS011;10754;51.106;7.164;2023-04-15T13:25:01;3.92;;;3.63;;
21192;SDS011;10754;51.106;7.164;2023-04-15T13:27:27;3.80;;;3.50;;
21192;SDS011;10754;51.106;7.164;2023-04-15T13:29:53;3.65;;;3.35;;
21192;SDS011;10754;51.106;7.164;2023-04-15T13:32:18;3.80;;;3.53;;
21192;SDS011;10754;51.106;7.164;2023-04-15T13:34:44;3.67;;;3.38;;
21192;SDS011;10754;51.106;7.164;2023-04-15T13:37:09;4.32;;;3.80;;
21192;SDS011;10754;51.106;7.164;2023-04-15T13:39:35;3.65;;;3.45;;
21192;SDS011;10754;51.106;7.164;2023-04-15T13:42:00;3.75;;;3.45;;
21192;SDS011;10754;51.106;7.164;2023-04-15T13:44:26;3.83;;;3.53;;
21192;SDS011;10754;51.106;7.164;2023-04-15T13:46:52;3.90;;;3.60;;
21192;SDS011;10754;51.106;7.164;2023-04-15T13:49:18;4.38;;;4.07;;
21192;SDS011;10754;51.106;7.164;2023-04-15T13:51:43;4.20;;;3.90;;
21192;SDS011;10754;51.106;7.164;2023-04-15T13:54:08;4.32;;;4.03;;
21192;SDS011;10754;51.106;7.164;2023-04-15T13:56:34;5.13;;;4.50;;
21192;SDS011;10754;51.106;7.164;2023-04-15T13:59:00;4.75;;;4.35;;
21192;SDS011;10754;51.106;7.164;2023-04-15T14:01:26;4.95;;;4.65;;
21192;SDS011;10754;51.106;7.164;2023-04-15T14:03:52;4.82;;;4.50;;
21192;SDS011;10754;51.106;7.164;2023-04-15T14:06:17;5.15;;;4.75;;
21192;SDS011;10754;51.106;7.164;2023-04-15T14:08:43;4.80;;;4.50;;
21192;SDS011;10754;51.106;7.164;2023-04-15T14:11:09;4.80;;;4.50;;
21192;SDS011;10754;51.106;7.164;2023-04-15T14:13:35;4.70;;;4.30;;
21192;SDS011;10754;51.106;7.164;2023-04-15T14:16:00;5.15;;;4.85;;
21192;SDS011;10754;51.106;7.164;2023-04-15T14:18:26;4.47;;;4.10;;
21192;SDS011;10754;51.106;7.164;2023-04-15T14:20:51;3.97;;;3.67;;
21192;SDS011;10754;51.106;7.164;2023-04-15T14:23:17;3.80;;;3.60;;
21192;SDS011;10754;51.106;7.164;2023-04-15T14:25:43;3.83;;;3.53;;
21192;SDS011;10754;51.106;7.164;2023-04-15T14:28:08;3.60;;;3.30;;
21192;SDS011;10754;51.106;7.164;2023-04-15T14:30:34;3.00;;;2.70;;
21192;SDS011;10754;51.106;7.164;2023-04-15T14:32:59;3.92;;;2.80;;
21192;SDS011;10754;51.106;7.164;2023-04-15T14:35:25;2.83;;;2.63;;
21192;SDS011;10754;51.106;7.164;2023-04-15T14:37:54;2.20;;;2.00;;
21192;SDS011;10754;51.106;7.164;2023-04-15T14:40:20;2.55;;;2.35;;
21192;SDS011;10754;51.106;7.164;2023-04-15T14:42:46;2.47;;;2.28;;
21192;SDS011;10754;51.106;7.164;2023-04-15T14:45:11;2.00;;;1.88;;
21192;SDS011;10754;51.106;7.164;2023-04-15T14:47:37;2.72;;;2.45;;
21192;SDS011;10754;51.106;7.164;2023-04-15T14:50:03;3.13;;;2.22;;
21192;SDS011;10754;51.106;7.164;2023-04-15T14:52:29;4.20;;;2.60;;
21192;SDS011;10754;51.106;7.164;2023-04-15T14:54:56;2.00;;;1.80;;
21192;SDS011;10754;51.106;7.164;2023-04-15T14:57:22;1.92;;;1.77;;
21192;SDS011;10754;51.106;7.164;2023-04-15T14:59:48;2.03;;;1.88;;
21192;SDS011;10754;51.106;7.164;2023-04-15T15:02:13;2.20;;;2.00;;
21192;SDS011;10754;51.106;7.164;2023-04-15T15:04:39;2.03;;;1.73;;
21192;SDS011;10754;51.106;7.164;2023-04-15T15:07:05;2.05;;;1.92;;
21192;SDS011;10754;51.106;7.164;2023-04-15T15:09:30;2.03;;;1.80;;
21192;SDS011;10754;51.106;7.164;2023-04-15T15:11:56;2.67;;;2.15;;
21192;SDS011;10754;51.106;7.164;2023-04-15T15:14:21;5.00;;;2.50;;